Browning, Illinois
Current Conditions -  °F | °C
As of 4:35 PM on Sunday 21 Dec 2014 (Local Time) from KIJX Reporting Station
Broken Clouds Broken Clouds  
Wind Chill: 35°   Ceiling: 4400
Heat Index: 40°   Visibility: 10mi
Dew Point: 34°   Wind: 8mph
Humidity: 77%   Direction: 140°SE
Pressure: 30.02"   Gusts: NA
Location:  40.13°N, 90.37°W
Report Text: KIJX 212235Z AUTO 14007KT 10SM BKN044 05/01 A3002 RMK AO2 T00460009
Loading
Personal Weather Stations






























Interactive Weather Map New forecast layout! Learn more

10-Day Weather Forecast

Advertisements
Track Severe Weather on mobile